sensor_id;sensor_type;location;lat;lon;timestamp;P1;durP1;ratioP1;P2;durP2;ratioP2
38843;SDS011;24596;48.080;8.362;2023-05-10T00:01:09;1.55;;;0.45;;
38843;SDS011;24596;48.080;8.362;2023-05-10T00:03:35;0.40;;;0.40;;
38843;SDS011;24596;48.080;8.362;2023-05-10T00:06:00;0.38;;;0.30;;
38843;SDS011;24596;48.080;8.362;2023-05-10T00:08:25;1.35;;;0.50;;
38843;SDS011;24596;48.080;8.362;2023-05-10T00:10:50;1.40;;;0.40;;
38843;SDS011;24596;48.080;8.362;2023-05-10T00:13:15;1.15;;;0.40;;
38843;SDS011;24596;48.080;8.362;2023-05-10T00:15:41;2.40;;;0.50;;
38843;SDS011;24596;48.080;8.362;2023-05-10T00:18:06;2.28;;;0.40;;
38843;SDS011;24596;48.080;8.362;2023-05-10T00:20:34;0.45;;;0.30;;
38843;SDS011;24596;48.080;8.362;2023-05-10T00:23:00;0.57;;;0.30;;
38843;SDS011;24596;48.080;8.362;2023-05-10T00:25:25;0.40;;;0.40;;
38843;SDS011;24596;48.080;8.362;2023-05-10T00:27:50;1.25;;;0.45;;
38843;SDS011;24596;48.080;8.362;2023-05-10T00:30:16;1.55;;;0.60;;
38843;SDS011;24596;48.080;8.362;2023-05-10T00:32:41;4.45;;;0.55;;
38843;SDS011;24596;48.080;8.362;2023-05-10T00:35:06;0.63;;;0.52;;
38843;SDS011;24596;48.080;8.362;2023-05-10T00:37:32;1.20;;;0.60;;
38843;SDS011;24596;48.080;8.362;2023-05-10T00:39:57;1.20;;;0.60;;
38843;SDS011;24596;48.080;8.362;2023-05-10T00:42:22;3.28;;;0.65;;
38843;SDS011;24596;48.080;8.362;2023-05-10T00:44:48;0.95;;;0.52;;
38843;SDS011;24596;48.080;8.362;2023-05-10T00:47:13;0.60;;;0.43;;
38843;SDS011;24596;48.080;8.362;2023-05-10T00:49:38;0.88;;;0.40;;
38843;SDS011;24596;48.080;8.362;2023-05-10T00:52:04;2.42;;;0.40;;
38843;SDS011;24596;48.080;8.362;2023-05-10T00:54:29;3.58;;;0.55;;
38843;SDS011;24596;48.080;8.362;2023-05-10T00:56:54;1.42;;;0.30;;
38843;SDS011;24596;48.080;8.362;2023-05-10T00:59:21;0.63;;;0.35;;
38843;SDS011;24596;48.080;8.362;2023-05-10T01:01:47;0.75;;;0.40;;
38843;SDS011;24596;48.080;8.362;2023-05-10T01:04:12;0.80;;;0.30;;
38843;SDS011;24596;48.080;8.362;2023-05-10T01:06:38;2.53;;;0.30;;
38843;SDS011;24596;48.080;8.362;2023-05-10T01:09:04;2.28;;;0.30;;
38843;SDS011;24596;48.080;8.362;2023-05-10T01:11:31;1.00;;;0.40;;
38843;SDS011;24596;48.080;8.362;2023-05-10T01:13:56;0.73;;;0.30;;
38843;SDS011;24596;48.080;8.362;2023-05-10T01:16:22;0.98;;;0.50;;
38843;SDS011;24596;48.080;8.362;2023-05-10T01:18:48;1.75;;;0.50;;
38843;SDS011;24596;48.080;8.362;2023-05-10T01:21:16;0.70;;;0.35;;
38843;SDS011;24596;48.080;8.362;2023-05-10T01:29:09;1.60;;;0.60;;
38843;SDS011;24596;48.080;8.362;2023-05-10T01:31:51;1.27;;;0.40;;
38843;SDS011;24596;48.080;8.362;2023-05-10T01:34:23;1.05;;;0.50;;
38843;SDS011;24596;48.080;8.362;2023-05-10T01:44:26;0.30;;;0.30;;
38843;SDS011;24596;48.080;8.362;2023-05-10T01:47:14;3.83;;;0.73;;
38843;SDS011;24596;48.080;8.362;2023-05-10T01:49:42;1.92;;;0.80;;
38843;SDS011;24596;48.080;8.362;2023-05-10T01:52:09;2.10;;;0.40;;
38843;SDS011;24596;48.080;8.362;2023-05-10T01:54:35;1.02;;;0.43;;
38843;SDS011;24596;48.080;8.362;2023-05-10T01:57:03;0.38;;;0.38;;
38843;SDS011;24596;48.080;8.362;2023-05-10T01:59:31;1.58;;;0.50;;
38843;SDS011;24596;48.080;8.362;2023-05-10T02:02:01;0.73;;;0.40;;
38843;SDS011;24596;48.080;8.362;2023-05-10T02:04:27;0.55;;;0.40;;
38843;SDS011;24596;48.080;8.362;2023-05-10T02:06:53;1.27;;;0.50;;
38843;SDS011;24596;48.080;8.362;2023-05-10T02:09:19;0.70;;;0.30;;
38843;SDS011;24596;48.080;8.362;2023-05-10T02:11:45;0.45;;;0.38;;
38843;SDS011;24596;48.080;8.362;2023-05-10T02:14:15;0.45;;;0.28;;
38843;SDS011;24596;48.080;8.362;2023-05-10T02:16:41;0.60;;;0.32;;
38843;SDS011;24596;48.080;8.362;2023-05-10T02:19:07;1.73;;;0.40;;
38843;SDS011;24596;48.080;8.362;2023-05-10T02:21:33;1.33;;;0.50;;
38843;SDS011;24596;48.080;8.362;2023-05-10T02:24:00;2.10;;;0.30;;
38843;SDS011;24596;48.080;8.362;2023-05-10T02:26:26;2.00;;;0.50;;
38843;SDS011;24596;48.080;8.362;2023-05-10T02:28:51;1.48;;;0.63;;
38843;SDS011;24596;48.080;8.362;2023-05-10T02:31:17;1.00;;;0.52;;
38843;SDS011;24596;48.080;8.362;2023-05-10T02:33:43;1.45;;;0.80;;
38843;SDS011;24596;48.080;8.362;2023-05-10T02:36:09;2.13;;;0.73;;
38843;SDS011;24596;48.080;8.362;2023-05-10T02:38:35;1.20;;;0.60;;
38843;SDS011;24596;48.080;8.362;2023-05-10T02:41:01;0.98;;;0.50;;
38843;SDS011;24596;48.080;8.362;2023-05-10T02:43:27;3.20;;;0.93;;
38843;SDS011;24596;48.080;8.362;2023-05-10T02:45:54;1.83;;;0.70;;
38843;SDS011;24596;48.080;8.362;2023-05-10T02:48:20;0.98;;;0.43;;
38843;SDS011;24596;48.080;8.362;2023-05-10T02:50:45;1.63;;;0.50;;
38843;SDS011;24596;48.080;8.362;2023-05-10T02:53:15;0.90;;;0.60;;
38843;SDS011;24596;48.080;8.362;2023-05-10T02:55:40;2.40;;;0.60;;
38843;SDS011;24596;48.080;8.362;2023-05-10T02:58:07;1.48;;;0.65;;
38843;SDS011;24596;48.080;8.362;2023-05-10T03:00:32;2.50;;;0.70;;
38843;SDS011;24596;48.080;8.362;2023-05-10T03:02:57;3.05;;;0.60;;
38843;SDS011;24596;48.080;8.362;2023-05-10T03:05:23;2.08;;;0.88;;
38843;SDS011;24596;48.080;8.362;2023-05-10T03:07:48;2.05;;;0.80;;
38843;SDS011;24596;48.080;8.362;2023-05-10T03:10:13;1.65;;;0.73;;
38843;SDS011;24596;48.080;8.362;2023-05-10T03:18:12;4.25;;;1.08;;
38843;SDS011;24596;48.080;8.362;2023-05-10T03:20:47;1.70;;;0.73;;
38843;SDS011;24596;48.080;8.362;2023-05-10T03:23:17;5.18;;;1.35;;
38843;SDS011;24596;48.080;8.362;2023-05-10T03:25:46;2.17;;;0.75;;
38843;SDS011;24596;48.080;8.362;2023-05-10T03:28:12;1.95;;;0.88;;
38843;SDS011;24596;48.080;8.362;2023-05-10T03:30:37;1.60;;;0.82;;
38843;SDS011;24596;48.080;8.362;2023-05-10T03:33:06;3.75;;;1.20;;
38843;SDS011;24596;48.080;8.362;2023-05-10T03:35:31;5.15;;;2.00;;
38843;SDS011;24596;48.080;8.362;2023-05-10T03:37:56;3.17;;;1.50;;
38843;SDS011;24596;48.080;8.362;2023-05-10T03:40:22;5.20;;;1.73;;
38843;SDS011;24596;48.080;8.362;2023-05-10T03:42:48;3.70;;;1.50;;
38843;SDS011;24596;48.080;8.362;2023-05-10T03:45:13;2.25;;;1.08;;
38843;SDS011;24596;48.080;8.362;2023-05-10T03:47:38;5.18;;;1.10;;
38843;SDS011;24596;48.080;8.362;2023-05-10T03:50:03;2.97;;;0.95;;
38843;SDS011;24596;48.080;8.362;2023-05-10T03:52:29;3.35;;;0.88;;
38843;SDS011;24596;48.080;8.362;2023-05-10T03:54:54;2.17;;;0.98;;
38843;SDS011;24596;48.080;8.362;2023-05-10T03:57:19;3.35;;;1.30;;
38843;SDS011;24596;48.080;8.362;2023-05-10T03:59:44;5.50;;;2.00;;
38843;SDS011;24596;48.080;8.362;2023-05-10T04:02:10;5.53;;;1.90;;
38843;SDS011;24596;48.080;8.362;2023-05-10T04:04:35;3.08;;;1.10;;
38843;SDS011;24596;48.080;8.362;2023-05-10T04:07:00;3.00;;;0.80;;
38843;SDS011;24596;48.080;8.362;2023-05-10T04:09:25;1.15;;;0.60;;
38843;SDS011;24596;48.080;8.362;2023-05-10T04:11:51;3.20;;;0.90;;
38843;SDS011;24596;48.080;8.362;2023-05-10T04:14:16;5.68;;;0.90;;
38843;SDS011;24596;48.080;8.362;2023-05-10T04:16:41;2.22;;;0.88;;
38843;SDS011;24596;48.080;8.362;2023-05-10T04:19:06;1.60;;;0.80;;
38843;SDS011;24596;48.080;8.362;2023-05-10T04:21:32;1.17;;;0.80;;
38843;SDS011;24596;48.080;8.362;2023-05-10T04:23:57;3.90;;;0.93;;
38843;SDS011;24596;48.080;8.362;2023-05-10T04:26:23;1.92;;;0.60;;
38843;SDS011;24596;48.080;8.362;2023-05-10T04:28:51;4.88;;;1.20;;
38843;SDS011;24596;48.080;8.362;2023-05-10T04:31:16;3.15;;;0.90;;
38843;SDS011;24596;48.080;8.362;2023-05-10T04:33:42;1.88;;;0.68;;
38843;SDS011;24596;48.080;8.362;2023-05-10T04:36:07;1.83;;;0.70;;
38843;SDS011;24596;48.080;8.362;2023-05-10T04:38:32;3.03;;;0.90;;
38843;SDS011;24596;48.080;8.362;2023-05-10T04:41:07;3.05;;;0.70;;
38843;SDS011;24596;48.080;8.362;2023-05-10T04:43:33;2.45;;;1.23;;
38843;SDS011;24596;48.080;8.362;2023-05-10T04:45:58;1.77;;;1.00;;
38843;SDS011;24596;48.080;8.362;2023-05-10T04:48:24;4.03;;;1.70;;
38843;SDS011;24596;48.080;8.362;2023-05-10T04:50:49;6.70;;;1.70;;
38843;SDS011;24596;48.080;8.362;2023-05-10T04:53:14;3.25;;;1.13;;
38843;SDS011;24596;48.080;8.362;2023-05-10T04:55:39;6.40;;;2.17;;
38843;SDS011;24596;48.080;8.362;2023-05-10T04:58:04;3.47;;;1.40;;
38843;SDS011;24596;48.080;8.362;2023-05-10T05:00:30;3.33;;;1.20;;
38843;SDS011;24596;48.080;8.362;2023-05-10T05:02:55;3.78;;;1.45;;
38843;SDS011;24596;48.080;8.362;2023-05-10T05:05:20;4.60;;;1.50;;
38843;SDS011;24596;48.080;8.362;2023-05-10T05:07:45;3.05;;;1.00;;
38843;SDS011;24596;48.080;8.362;2023-05-10T05:10:11;3.65;;;0.98;;
38843;SDS011;24596;48.080;8.362;2023-05-10T05:12:36;1.75;;;0.82;;
38843;SDS011;24596;48.080;8.362;2023-05-10T05:15:01;3.05;;;1.10;;
38843;SDS011;24596;48.080;8.362;2023-05-10T05:17:26;4.80;;;1.00;;
38843;SDS011;24596;48.080;8.362;2023-05-10T05:19:52;4.30;;;1.10;;
38843;SDS011;24596;48.080;8.362;2023-05-10T05:22:17;1.88;;;0.75;;
38843;SDS011;24596;48.080;8.362;2023-05-10T05:24:42;1.15;;;0.60;;
38843;SDS011;24596;48.080;8.362;2023-05-10T05:27:07;3.30;;;1.00;;
38843;SDS011;24596;48.080;8.362;2023-05-10T05:29:33;1.70;;;0.82;;
38843;SDS011;24596;48.080;8.362;2023-05-10T05:31:58;4.00;;;0.95;;
38843;SDS011;24596;48.080;8.362;2023-05-10T05:34:23;2.33;;;1.05;;
38843;SDS011;24596;48.080;8.362;2023-05-10T05:36:49;5.15;;;1.45;;
38843;SDS011;24596;48.080;8.362;2023-05-10T05:39:14;4.50;;;1.50;;
38843;SDS011;24596;48.080;8.362;2023-05-10T05:41:39;2.65;;;1.00;;
38843;SDS011;24596;48.080;8.362;2023-05-10T05:44:05;1.63;;;0.73;;
38843;SDS011;24596;48.080;8.362;2023-05-10T05:46:30;3.90;;;0.75;;
38843;SDS011;24596;48.080;8.362;2023-05-10T05:48:55;3.22;;;0.98;;
38843;SDS011;24596;48.080;8.362;2023-05-10T05:51:20;2.03;;;1.00;;
38843;SDS011;24596;48.080;8.362;2023-05-10T05:53:46;1.95;;;0.90;;
38843;SDS011;24596;48.080;8.362;2023-05-10T05:56:11;2.97;;;0.95;;
38843;SDS011;24596;48.080;8.362;2023-05-10T05:58:36;1.83;;;0.85;;
38843;SDS011;24596;48.080;8.362;2023-05-10T06:01:01;2.22;;;0.98;;
38843;SDS011;24596;48.080;8.362;2023-05-10T06:03:26;1.70;;;0.77;;
38843;SDS011;24596;48.080;8.362;2023-05-10T06:05:52;1.02;;;0.55;;
38843;SDS011;24596;48.080;8.362;2023-05-10T06:08:17;1.10;;;0.75;;
38843;SDS011;24596;48.080;8.362;2023-05-10T06:10:42;2.25;;;0.80;;
38843;SDS011;24596;48.080;8.362;2023-05-10T06:13:07;2.85;;;1.00;;
38843;SDS011;24596;48.080;8.362;2023-05-10T06:15:33;2.45;;;1.00;;
38843;SDS011;24596;48.080;8.362;2023-05-10T06:17:58;4.60;;;0.80;;
38843;SDS011;24596;48.080;8.362;2023-05-10T06:20:23;2.22;;;0.90;;
38843;SDS011;24596;48.080;8.362;2023-05-10T06:22:48;3.53;;;0.90;;
38843;SDS011;24596;48.080;8.362;2023-05-10T06:25:13;2.85;;;0.73;;
38843;SDS011;24596;48.080;8.362;2023-05-10T06:27:39;2.08;;;0.80;;
38843;SDS011;24596;48.080;8.362;2023-05-10T06:30:04;3.10;;;0.80;;
38843;SDS011;24596;48.080;8.362;2023-05-10T06:32:30;1.85;;;0.90;;
38843;SDS011;24596;48.080;8.362;2023-05-10T06:34:55;3.33;;;0.80;;
38843;SDS011;24596;48.080;8.362;2023-05-10T06:37:20;2.45;;;0.90;;
38843;SDS011;24596;48.080;8.362;2023-05-10T06:39:46;4.13;;;0.70;;
38843;SDS011;24596;48.080;8.362;2023-05-10T06:42:11;2.17;;;1.27;;
38843;SDS011;24596;48.080;8.362;2023-05-10T06:44:36;2.30;;;1.05;;
38843;SDS011;24596;48.080;8.362;2023-05-10T06:47:01;2.53;;;0.90;;
38843;SDS011;24596;48.080;8.362;2023-05-10T06:49:27;4.25;;;1.20;;
38843;SDS011;24596;48.080;8.362;2023-05-10T06:51:52;1.92;;;0.95;;
38843;SDS011;24596;48.080;8.362;2023-05-10T06:54:17;3.20;;;0.95;;
38843;SDS011;24596;48.080;8.362;2023-05-10T06:56:42;3.55;;;0.82;;
38843;SDS011;24596;48.080;8.362;2023-05-10T06:59:07;2.92;;;0.93;;
38843;SDS011;24596;48.080;8.362;2023-05-10T07:01:33;1.95;;;0.80;;
38843;SDS011;24596;48.080;8.362;2023-05-10T07:03:58;2.35;;;0.98;;
38843;SDS011;24596;48.080;8.362;2023-05-10T07:06:23;2.85;;;0.82;;
38843;SDS011;24596;48.080;8.362;2023-05-10T07:08:48;1.98;;;0.55;;
38843;SDS011;24596;48.080;8.362;2023-05-10T07:11:14;1.02;;;0.60;;
38843;SDS011;24596;48.080;8.362;2023-05-10T07:13:39;1.50;;;0.55;;
38843;SDS011;24596;48.080;8.362;2023-05-10T07:16:06;2.33;;;0.50;;
38843;SDS011;24596;48.080;8.362;2023-05-10T07:18:32;1.08;;;0.70;;
38843;SDS011;24596;48.080;8.362;2023-05-10T07:20:57;3.97;;;0.70;;
38843;SDS011;24596;48.080;8.362;2023-05-10T07:23:22;1.35;;;0.70;;
38843;SDS011;24596;48.080;8.362;2023-05-10T07:25:48;1.48;;;0.60;;
38843;SDS011;24596;48.080;8.362;2023-05-10T07:28:14;0.57;;;0.40;;
38843;SDS011;24596;48.080;8.362;2023-05-10T07:30:39;2.97;;;0.50;;
38843;SDS011;24596;48.080;8.362;2023-05-10T07:33:05;3.00;;;0.80;;
38843;SDS011;24596;48.080;8.362;2023-05-10T07:35:30;1.40;;;0.50;;
38843;SDS011;24596;48.080;8.362;2023-05-10T07:37:55;0.80;;;0.43;;
38843;SDS011;24596;48.080;8.362;2023-05-10T07:40:21;1.17;;;0.50;;
38843;SDS011;24596;48.080;8.362;2023-05-10T07:42:46;0.57;;;0.35;;
38843;SDS011;24596;48.080;8.362;2023-05-10T07:45:11;2.03;;;0.60;;
38843;SDS011;24596;48.080;8.362;2023-05-10T07:47:36;3.55;;;0.70;;
38843;SDS011;24596;48.080;8.362;2023-05-10T07:50:02;2.63;;;1.00;;
38843;SDS011;24596;48.080;8.362;2023-05-10T07:52:27;5.03;;;1.20;;
38843;SDS011;24596;48.080;8.362;2023-05-10T07:54:52;8.18;;;1.20;;
38843;SDS011;24596;48.080;8.362;2023-05-10T07:57:18;3.17;;;0.95;;
38843;SDS011;24596;48.080;8.362;2023-05-10T07:59:43;1.73;;;0.80;;
38843;SDS011;24596;48.080;8.362;2023-05-10T08:02:09;3.33;;;0.80;;
38843;SDS011;24596;48.080;8.362;2023-05-10T08:04:34;3.70;;;0.93;;
38843;SDS011;24596;48.080;8.362;2023-05-10T08:07:00;2.88;;;0.95;;
38843;SDS011;24596;48.080;8.362;2023-05-10T08:09:25;1.65;;;0.70;;
38843;SDS011;24596;48.080;8.362;2023-05-10T08:11:50;2.67;;;0.40;;
38843;SDS011;24596;48.080;8.362;2023-05-10T08:14:16;1.90;;;0.40;;
38843;SDS011;24596;48.080;8.362;2023-05-10T08:16:41;1.75;;;0.50;;
38843;SDS011;24596;48.080;8.362;2023-05-10T08:19:06;2.08;;;0.50;;
38843;SDS011;24596;48.080;8.362;2023-05-10T08:21:32;2.13;;;0.40;;
38843;SDS011;24596;48.080;8.362;2023-05-10T08:23:57;2.22;;;0.47;;
38843;SDS011;24596;48.080;8.362;2023-05-10T08:26:22;1.25;;;0.50;;
38843;SDS011;24596;48.080;8.362;2023-05-10T08:28:47;1.15;;;0.70;;
38843;SDS011;24596;48.080;8.362;2023-05-10T08:31:13;1.13;;;0.57;;
38843;SDS011;24596;48.080;8.362;2023-05-10T08:33:38;0.93;;;0.60;;
38843;SDS011;24596;48.080;8.362;2023-05-10T08:36:03;3.70;;;1.00;;
38843;SDS011;24596;48.080;8.362;2023-05-10T08:38:29;2.28;;;0.88;;
38843;SDS011;24596;48.080;8.362;2023-05-10T08:40:54;1.52;;;0.50;;
38843;SDS011;24596;48.080;8.362;2023-05-10T08:43:24;2.17;;;0.80;;
38843;SDS011;24596;48.080;8.362;2023-05-10T08:45:51;3.60;;;1.63;;
38843;SDS011;24596;48.080;8.362;2023-05-10T08:48:17;2.38;;;0.75;;
38843;SDS011;24596;48.080;8.362;2023-05-10T08:50:43;3.55;;;1.10;;
38843;SDS011;24596;48.080;8.362;2023-05-10T08:53:10;4.75;;;1.00;;
38843;SDS011;24596;48.080;8.362;2023-05-10T08:55:36;5.63;;;0.90;;
38843;SDS011;24596;48.080;8.362;2023-05-10T08:58:06;2.13;;;0.90;;
38843;SDS011;24596;48.080;8.362;2023-05-10T09:00:32;3.47;;;1.00;;
38843;SDS011;24596;48.080;8.362;2023-05-10T09:02:57;3.33;;;1.08;;
38843;SDS011;24596;48.080;8.362;2023-05-10T09:05:22;3.95;;;0.90;;
38843;SDS011;24596;48.080;8.362;2023-05-10T09:07:48;5.50;;;1.02;;
38843;SDS011;24596;48.080;8.362;2023-05-10T09:10:13;2.85;;;0.93;;
38843;SDS011;24596;48.080;8.362;2023-05-10T09:12:39;5.32;;;0.93;;
38843;SDS011;24596;48.080;8.362;2023-05-10T09:15:05;5.65;;;1.05;;
38843;SDS011;24596;48.080;8.362;2023-05-10T09:17:31;2.30;;;0.90;;
38843;SDS011;24596;48.080;8.362;2023-05-10T09:19:57;2.50;;;1.08;;
38843;SDS011;24596;48.080;8.362;2023-05-10T09:22:22;2.78;;;0.75;;
38843;SDS011;24596;48.080;8.362;2023-05-10T09:24:48;3.75;;;0.88;;
38843;SDS011;24596;48.080;8.362;2023-05-10T09:27:27;3.65;;;0.82;;
38843;SDS011;24596;48.080;8.362;2023-05-10T09:29:53;4.88;;;0.90;;
38843;SDS011;24596;48.080;8.362;2023-05-10T09:32:20;1.70;;;0.80;;
38843;SDS011;24596;48.080;8.362;2023-05-10T09:34:45;4.63;;;0.90;;
38843;SDS011;24596;48.080;8.362;2023-05-10T09:37:10;5.95;;;0.90;;
38843;SDS011;24596;48.080;8.362;2023-05-10T09:39:36;1.80;;;0.80;;
38843;SDS011;24596;48.080;8.362;2023-05-10T09:42:02;3.50;;;0.95;;
38843;SDS011;24596;48.080;8.362;2023-05-10T09:44:28;3.53;;;0.80;;
38843;SDS011;24596;48.080;8.362;2023-05-10T09:46:54;5.25;;;0.90;;
38843;SDS011;24596;48.080;8.362;2023-05-10T09:49:20;4.75;;;0.80;;
38843;SDS011;24596;48.080;8.362;2023-05-10T09:51:45;4.63;;;0.88;;
38843;SDS011;24596;48.080;8.362;2023-05-10T09:54:12;4.28;;;0.90;;
38843;SDS011;24596;48.080;8.362;2023-05-10T09:56:38;5.15;;;0.85;;
38843;SDS011;24596;48.080;8.362;2023-05-10T09:59:05;3.00;;;0.80;;
38843;SDS011;24596;48.080;8.362;2023-05-10T10:01:31;4.05;;;0.82;;
38843;SDS011;24596;48.080;8.362;2023-05-10T10:03:56;1.67;;;0.70;;
38843;SDS011;24596;48.080;8.362;2023-05-10T10:06:23;3.65;;;0.80;;
38843;SDS011;24596;48.080;8.362;2023-05-10T10:08:48;4.40;;;0.77;;
38843;SDS011;24596;48.080;8.362;2023-05-10T10:11:13;2.88;;;0.82;;
38843;SDS011;24596;48.080;8.362;2023-05-10T10:13:39;5.07;;;1.20;;
38843;SDS011;24596;48.080;8.362;2023-05-10T10:16:05;3.83;;;0.95;;
38843;SDS011;24596;48.080;8.362;2023-05-10T10:18:30;7.40;;;1.25;;
38843;SDS011;24596;48.080;8.362;2023-05-10T10:20:55;1.40;;;0.70;;
38843;SDS011;24596;48.080;8.362;2023-05-10T10:23:21;3.72;;;1.10;;
38843;SDS011;24596;48.080;8.362;2023-05-10T10:25:46;1.00;;;0.73;;
38843;SDS011;24596;48.080;8.362;2023-05-10T10:30:42;4.57;;;0.88;;
38843;SDS011;24596;48.080;8.362;2023-05-10T10:35:33;6.00;;;1.08;;
38843;SDS011;24596;48.080;8.362;2023-05-10T10:37:59;1.23;;;0.68;;
38843;SDS011;24596;48.080;8.362;2023-05-10T10:40:26;4.35;;;1.20;;
38843;SDS011;24596;48.080;8.362;2023-05-10T10:42:51;2.67;;;1.00;;
38843;SDS011;24596;48.080;8.362;2023-05-10T10:45:18;3.67;;;0.93;;
38843;SDS011;24596;48.080;8.362;2023-05-10T10:47:44;3.85;;;1.25;;
38843;SDS011;24596;48.080;8.362;2023-05-10T10:50:10;7.43;;;1.10;;
38843;SDS011;24596;48.080;8.362;2023-05-10T10:52:38;6.60;;;1.02;;
38843;SDS011;24596;48.080;8.362;2023-05-10T10:57:34;6.00;;;1.15;;
38843;SDS011;24596;48.080;8.362;2023-05-10T11:03:20;4.85;;;1.10;;
38843;SDS011;24596;48.080;8.362;2023-05-10T11:10:33;5.20;;;1.27;;
38843;SDS011;24596;48.080;8.362;2023-05-10T11:15:34;4.35;;;1.42;;
38843;SDS011;24596;48.080;8.362;2023-05-10T11:18:00;3.60;;;1.00;;
38843;SDS011;24596;48.080;8.362;2023-05-10T11:20:40;3.92;;;1.10;;
38843;SDS011;24596;48.080;8.362;2023-05-10T11:23:13;7.22;;;1.38;;
38843;SDS011;24596;48.080;8.362;2023-05-10T11:25:43;3.22;;;1.58;;
38843;SDS011;24596;48.080;8.362;2023-05-10T11:28:09;4.78;;;1.10;;
38843;SDS011;24596;48.080;8.362;2023-05-10T11:30:35;3.80;;;0.90;;
38843;SDS011;24596;48.080;8.362;2023-05-10T11:33:00;3.70;;;1.20;;
38843;SDS011;24596;48.080;8.362;2023-05-10T11:35:27;5.32;;;1.10;;
38843;SDS011;24596;48.080;8.362;2023-05-10T11:37:52;3.53;;;1.00;;
38843;SDS011;24596;48.080;8.362;2023-05-10T11:40:17;1.98;;;0.88;;
38843;SDS011;24596;48.080;8.362;2023-05-10T11:42:43;5.10;;;0.95;;
38843;SDS011;24596;48.080;8.362;2023-05-10T11:45:08;3.70;;;1.15;;
38843;SDS011;24596;48.080;8.362;2023-05-10T11:47:33;3.55;;;1.20;;
38843;SDS011;24596;48.080;8.362;2023-05-10T11:50:00;3.90;;;0.98;;
38843;SDS011;24596;48.080;8.362;2023-05-10T11:52:25;5.45;;;1.08;;
38843;SDS011;24596;48.080;8.362;2023-05-10T11:54:51;3.22;;;0.82;;
38843;SDS011;24596;48.080;8.362;2023-05-10T11:57:17;3.97;;;0.98;;
38843;SDS011;24596;48.080;8.362;2023-05-10T11:59:43;3.20;;;0.80;;
38843;SDS011;24596;48.080;8.362;2023-05-10T12:02:08;2.80;;;0.90;;
38843;SDS011;24596;48.080;8.362;2023-05-10T12:04:33;6.07;;;1.38;;
38843;SDS011;24596;48.080;8.362;2023-05-10T12:06:58;2.75;;;1.00;;
38843;SDS011;24596;48.080;8.362;2023-05-10T12:09:24;3.55;;;0.82;;
38843;SDS011;24596;48.080;8.362;2023-05-10T12:11:49;2.88;;;0.93;;
38843;SDS011;24596;48.080;8.362;2023-05-10T12:14:20;5.18;;;1.02;;
38843;SDS011;24596;48.080;8.362;2023-05-10T12:16:46;4.00;;;0.80;;
38843;SDS011;24596;48.080;8.362;2023-05-10T12:19:12;3.22;;;1.00;;
38843;SDS011;24596;48.080;8.362;2023-05-10T12:21:37;5.38;;;1.00;;
38843;SDS011;24596;48.080;8.362;2023-05-10T12:24:03;3.75;;;0.77;;
38843;SDS011;24596;48.080;8.362;2023-05-10T12:26:30;3.58;;;0.73;;
38843;SDS011;24596;48.080;8.362;2023-05-10T12:29:11;4.00;;;0.60;;
38843;SDS011;24596;48.080;8.362;2023-05-10T12:31:55;6.05;;;0.80;;
38843;SDS011;24596;48.080;8.362;2023-05-10T12:34:29;2.47;;;0.65;;
38843;SDS011;24596;48.080;8.362;2023-05-10T12:36:55;3.33;;;0.82;;
38843;SDS011;24596;48.080;8.362;2023-05-10T12:39:20;4.88;;;0.98;;
38843;SDS011;24596;48.080;8.362;2023-05-10T12:41:45;3.58;;;0.90;;
38843;SDS011;24596;48.080;8.362;2023-05-10T12:44:11;3.40;;;0.80;;
38843;SDS011;24596;48.080;8.362;2023-05-10T12:46:36;3.45;;;0.90;;
38843;SDS011;24596;48.080;8.362;2023-05-10T12:49:01;7.20;;;1.13;;
38843;SDS011;24596;48.080;8.362;2023-05-10T12:51:26;5.57;;;1.10;;
38843;SDS011;24596;48.080;8.362;2023-05-10T12:53:52;7.25;;;1.20;;
38843;SDS011;24596;48.080;8.362;2023-05-10T12:56:17;3.97;;;1.02;;
38843;SDS011;24596;48.080;8.362;2023-05-10T12:58:42;7.63;;;1.23;;
38843;SDS011;24596;48.080;8.362;2023-05-10T13:01:12;6.50;;;1.00;;
38843;SDS011;24596;48.080;8.362;2023-05-10T13:03:38;6.63;;;1.10;;
38843;SDS011;24596;48.080;8.362;2023-05-10T13:06:03;2.85;;;0.93;;
38843;SDS011;24596;48.080;8.362;2023-05-10T13:08:28;3.60;;;1.00;;
38843;SDS011;24596;48.080;8.362;2023-05-10T13:10:58;3.75;;;0.82;;
38843;SDS011;24596;48.080;8.362;2023-05-10T13:13:23;5.72;;;1.30;;
38843;SDS011;24596;48.080;8.362;2023-05-10T13:15:48;3.13;;;0.80;;
38843;SDS011;24596;48.080;8.362;2023-05-10T13:18:13;3.72;;;1.00;;
38843;SDS011;24596;48.080;8.362;2023-05-10T13:20:38;3.97;;;0.98;;
38843;SDS011;24596;48.080;8.362;2023-05-10T13:23:04;7.20;;;0.93;;
38843;SDS011;24596;48.080;8.362;2023-05-10T13:25:29;4.40;;;1.10;;
38843;SDS011;24596;48.080;8.362;2023-05-10T13:27:54;2.75;;;0.88;;
38843;SDS011;24596;48.080;8.362;2023-05-10T13:30:20;4.25;;;1.00;;
38843;SDS011;24596;48.080;8.362;2023-05-10T13:32:45;3.42;;;0.95;;
38843;SDS011;24596;48.080;8.362;2023-05-10T13:35:10;3.00;;;0.80;;
38843;SDS011;24596;48.080;8.362;2023-05-10T13:37:35;3.33;;;1.30;;
38843;SDS011;24596;48.080;8.362;2023-05-10T13:40:02;4.20;;;1.35;;
38843;SDS011;24596;48.080;8.362;2023-05-10T13:42:27;3.10;;;0.95;;
38843;SDS011;24596;48.080;8.362;2023-05-10T13:44:53;3.35;;;1.20;;
38843;SDS011;24596;48.080;8.362;2023-05-10T13:47:18;2.83;;;1.17;;
38843;SDS011;24596;48.080;8.362;2023-05-10T13:49:43;2.55;;;0.70;;
38843;SDS011;24596;48.080;8.362;2023-05-10T13:52:09;4.65;;;0.80;;
38843;SDS011;24596;48.080;8.362;2023-05-10T13:54:35;3.65;;;1.10;;
38843;SDS011;24596;48.080;8.362;2023-05-10T13:57:01;1.60;;;0.77;;
38843;SDS011;24596;48.080;8.362;2023-05-10T13:59:26;4.22;;;0.80;;
38843;SDS011;24596;48.080;8.362;2023-05-10T14:01:51;2.25;;;0.60;;
38843;SDS011;24596;48.080;8.362;2023-05-10T14:04:16;4.57;;;0.80;;
38843;SDS011;24596;48.080;8.362;2023-05-10T14:06:41;3.58;;;0.60;;
38843;SDS011;24596;48.080;8.362;2023-05-10T14:09:07;8.25;;;1.02;;
38843;SDS011;24596;48.080;8.362;2023-05-10T14:11:32;2.90;;;0.85;;
38843;SDS011;24596;48.080;8.362;2023-05-10T14:13:57;2.30;;;1.00;;
38843;SDS011;24596;48.080;8.362;2023-05-10T14:16:22;6.87;;;0.90;;
38843;SDS011;24596;48.080;8.362;2023-05-10T14:18:48;5.85;;;1.00;;
38843;SDS011;24596;48.080;8.362;2023-05-10T14:21:13;4.03;;;1.33;;
38843;SDS011;24596;48.080;8.362;2023-05-10T14:23:38;10.20;;;1.55;;
38843;SDS011;24596;48.080;8.362;2023-05-10T14:26:03;2.75;;;0.80;;
38843;SDS011;24596;48.080;8.362;2023-05-10T14:28:29;2.47;;;0.70;;
38843;SDS011;24596;48.080;8.362;2023-05-10T14:30:54;5.53;;;0.60;;
38843;SDS011;24596;48.080;8.362;2023-05-10T14:33:19;1.92;;;0.85;;
38843;SDS011;24596;48.080;8.362;2023-05-10T14:35:45;2.05;;;0.65;;
38843;SDS011;24596;48.080;8.362;2023-05-10T14:38:11;3.72;;;0.63;;
38843;SDS011;24596;48.080;8.362;2023-05-10T14:40:37;2.03;;;0.50;;
38843;SDS011;24596;48.080;8.362;2023-05-10T14:43:02;4.28;;;0.60;;
38843;SDS011;24596;48.080;8.362;2023-05-10T14:45:28;2.65;;;0.50;;
38843;SDS011;24596;48.080;8.362;2023-05-10T14:47:53;2.38;;;0.52;;
38843;SDS011;24596;48.080;8.362;2023-05-10T14:50:18;2.97;;;0.52;;
38843;SDS011;24596;48.080;8.362;2023-05-10T14:52:44;2.17;;;0.50;;
38843;SDS011;24596;48.080;8.362;2023-05-10T14:55:09;3.97;;;0.68;;
38843;SDS011;24596;48.080;8.362;2023-05-10T14:57:34;2.55;;;0.60;;
38843;SDS011;24596;48.080;8.362;2023-05-10T15:00:00;2.42;;;0.75;;
38843;SDS011;24596;48.080;8.362;2023-05-10T15:02:25;2.45;;;0.60;;
38843;SDS011;24596;48.080;8.362;2023-05-10T15:04:50;1.92;;;0.60;;
38843;SDS011;24596;48.080;8.362;2023-05-10T15:07:16;6.07;;;0.70;;
38843;SDS011;24596;48.080;8.362;2023-05-10T15:09:43;3.20;;;0.50;;
38843;SDS011;24596;48.080;8.362;2023-05-10T15:12:08;1.55;;;0.70;;
38843;SDS011;24596;48.080;8.362;2023-05-10T15:14:33;0.60;;;0.40;;
38843;SDS011;24596;48.080;8.362;2023-05-10T15:17:00;1.92;;;0.82;;